createdAt,value
2018-01-08T00:00:52.874Z,1029.30
2018-01-08T00:01:52.825Z,1029.30
2018-01-08T00:02:52.780Z,1029.26
2018-01-08T00:03:52.735Z,1029.28
2018-01-08T00:04:52.696Z,1029.27
2018-01-08T00:05:52.642Z,1029.24
2018-01-08T00:06:52.601Z,1029.23
2018-01-08T00:07:52.559Z,1029.27
2018-01-08T00:08:52.511Z,1029.27
2018-01-08T00:09:52.497Z,1029.27
2018-01-08T00:10:52.425Z,1029.30
2018-01-08T00:11:52.379Z,1029.31
2018-01-08T00:12:52.361Z,1029.35
2018-01-08T00:13:52.292Z,1029.33
2018-01-08T00:14:52.241Z,1029.33
2018-01-08T00:15:52.197Z,1029.31
2018-01-08T00:16:52.160Z,1029.37
2018-01-08T00:17:52.108Z,1029.36
2018-01-08T00:18:52.075Z,1029.35
2018-01-08T00:19:52.020Z,1029.31
2018-01-08T00:20:51.985Z,1029.35
2018-01-08T00:21:51.943Z,1029.36
2018-01-08T00:22:51.888Z,1029.36
2018-01-08T00:23:51.844Z,1029.32
2018-01-08T00:24:51.802Z,1029.32
2018-01-08T00:25:51.760Z,1029.31
2018-01-08T00:26:51.711Z,1029.29
2018-01-08T00:27:51.673Z,1029.33
2018-01-08T00:28:51.631Z,1029.30
2018-01-08T00:29:51.585Z,1029.33
2018-01-08T00:30:51.552Z,1029.31
2018-01-08T00:31:51.489Z,1029.32
2018-01-08T00:32:51.446Z,1029.29
2018-01-08T00:33:51.402Z,1029.29
2018-01-08T00:34:51.358Z,1029.30
2018-01-08T00:35:51.474Z,1029.30
2018-01-08T00:36:51.276Z,1029.33
2018-01-08T00:37:51.225Z,1029.27
2018-01-08T00:38:51.179Z,1029.26
2018-01-08T00:39:51.135Z,1029.21
2018-01-08T00:40:51.090Z,1029.17
2018-01-08T00:41:51.049Z,1029.19
2018-01-08T00:42:51.053Z,1029.20
2018-01-08T00:43:50.955Z,1029.25
2018-01-08T00:44:50.923Z,1029.24
2018-01-08T00:45:50.977Z,1029.26
2018-01-08T00:46:50.857Z,1029.22
2018-01-08T00:47:50.858Z,1029.24
2018-01-08T00:48:50.734Z,1029.24
2018-01-08T00:49:50.685Z,1029.26
2018-01-08T00:50:50.658Z,1029.26
2018-01-08T00:51:50.597Z,1029.26
2018-01-08T00:52:50.552Z,1029.27
2018-01-08T00:53:50.509Z,1029.24
2018-01-08T00:54:50.466Z,1029.27
2018-01-08T00:55:50.417Z,1029.28
2018-01-08T00:56:50.372Z,1029.26
2018-01-08T00:57:50.346Z,1029.23
2018-01-08T00:58:50.334Z,1029.23
2018-01-08T00:59:50.248Z,1029.25
2018-01-08T01:00:50.200Z,1029.27
2018-01-08T01:01:50.183Z,1029.27
2018-01-08T01:02:50.107Z,1029.26
2018-01-08T01:03:50.062Z,1029.26
2018-01-08T01:04:50.022Z,1029.27
2018-01-08T01:05:49.972Z,1029.26
2018-01-08T01:06:49.932Z,1029.23
2018-01-08T01:07:49.884Z,1029.25
2018-01-08T01:08:49.842Z,1029.25
2018-01-08T01:09:49.805Z,1029.25
2018-01-08T01:10:49.752Z,1029.21
2018-01-08T01:11:49.711Z,1029.23
2018-01-08T01:12:49.669Z,1029.26
2018-01-08T01:13:49.620Z,1029.21
2018-01-08T01:14:49.587Z,1029.18
2018-01-08T01:15:49.539Z,1029.17
2018-01-08T01:16:49.485Z,1029.19
2018-01-08T01:17:49.445Z,1029.20
2018-01-08T01:18:49.397Z,1029.20
2018-01-08T01:19:49.399Z,1029.20
2018-01-08T01:20:49.340Z,1029.16
2018-01-08T01:21:49.281Z,1029.15
2018-01-08T01:22:49.223Z,1029.16
2018-01-08T01:23:49.189Z,1029.19
2018-01-08T01:24:49.139Z,1029.15
2018-01-08T01:25:49.085Z,1029.13
2018-01-08T01:26:49.060Z,1029.14
2018-01-08T01:27:49.003Z,1029.15
2018-01-08T01:28:48.973Z,1029.13
2018-01-08T01:29:48.910Z,1029.13
2018-01-08T01:30:48.878Z,1029.13
2018-01-08T01:31:48.816Z,1029.10
2018-01-08T01:32:48.774Z,1029.14
2018-01-08T01:33:48.740Z,1029.20
2018-01-08T01:34:48.682Z,1029.17
2018-01-08T01:35:48.641Z,1029.17
2018-01-08T01:36:48.590Z,1029.18
2018-01-08T01:37:48.553Z,1029.17
2018-01-08T01:38:48.503Z,1029.15
2018-01-08T01:39:48.474Z,1029.16
2018-01-08T01:40:48.416Z,1029.17
2018-01-08T01:41:48.371Z,1029.14
2018-01-08T01:42:48.328Z,1029.12
2018-01-08T01:43:48.280Z,1029.12
2018-01-08T01:44:48.240Z,1029.10
2018-01-08T01:45:48.202Z,1029.13
2018-01-08T01:46:48.145Z,1029.09
2018-01-08T01:47:48.106Z,1029.10
2018-01-08T01:48:48.056Z,1029.07
2018-01-08T01:49:48.033Z,1029.05
2018-01-08T01:50:47.966Z,1029.07
2018-01-08T01:51:47.922Z,1029.09
2018-01-08T01:52:47.877Z,1029.02
2018-01-08T01:53:47.832Z,1029.10
2018-01-08T01:54:47.787Z,1029.08
2018-01-08T01:55:47.752Z,1029.05
2018-01-08T01:56:47.701Z,1029.10
2018-01-08T01:57:47.666Z,1029.09
2018-01-08T01:58:47.609Z,1029.10
2018-01-08T01:59:47.581Z,1029.13
2018-01-08T02:00:47.521Z,1029.12
2018-01-08T02:01:47.512Z,1029.12
2018-01-08T02:02:47.432Z,1029.15
2018-01-08T02:03:47.407Z,1029.14
2018-01-08T02:04:47.347Z,1029.11
2018-01-08T02:05:47.299Z,1029.08
2018-01-08T02:06:47.274Z,1029.09
2018-01-08T02:07:47.222Z,1029.09
2018-01-08T02:08:47.179Z,1029.09
2018-01-08T02:09:47.131Z,1029.13
2018-01-08T02:10:47.200Z,1029.10
2018-01-08T02:11:47.036Z,1029.09
2018-01-08T02:12:47.004Z,1029.05
2018-01-08T02:13:46.953Z,1029.07
2018-01-08T02:14:46.911Z,1029.06
2018-01-08T02:15:46.864Z,1029.02
2018-01-08T02:16:46.823Z,1029.02
2018-01-08T02:17:46.761Z,1029.03
2018-01-08T02:18:46.755Z,1029.00
2018-01-08T02:19:46.675Z,1028.99
2018-01-08T02:20:46.630Z,1029.03
2018-01-08T02:21:46.582Z,1028.98
2018-01-08T02:22:46.544Z,1029.04
2018-01-08T02:23:46.495Z,1029.01
2018-01-08T02:24:46.449Z,1029.02
2018-01-08T02:25:46.405Z,1029.03
2018-01-08T02:26:46.366Z,1029.01
2018-01-08T02:27:46.313Z,1028.99
2018-01-08T02:28:46.272Z,1029.01
2018-01-08T02:29:46.230Z,1029.04
2018-01-08T02:30:46.181Z,1029.02
2018-01-08T02:31:46.146Z,1029.03
2018-01-08T02:32:46.092Z,1028.99
2018-01-08T02:33:46.047Z,1029.05
2018-01-08T02:34:46.003Z,1029.05
2018-01-08T02:35:45.965Z,1029.00
2018-01-08T02:36:45.913Z,1028.98
2018-01-08T02:37:45.871Z,1028.96
2018-01-08T02:38:45.830Z,1028.96
2018-01-08T02:39:45.779Z,1028.93
2018-01-08T02:40:45.737Z,1028.94
2018-01-08T02:41:45.694Z,1028.97
2018-01-08T02:42:45.657Z,1028.95
2018-01-08T02:43:45.627Z,1028.93
2018-01-08T02:44:45.559Z,1029.00
2018-01-08T02:45:45.510Z,1028.97
2018-01-08T02:46:45.471Z,1028.99
2018-01-08T02:47:45.434Z,1028.98
2018-01-08T02:48:45.381Z,1028.95
2018-01-08T02:49:45.346Z,1029.03
2018-01-08T02:50:45.286Z,1029.03
2018-01-08T02:51:45.258Z,1028.99
2018-01-08T02:52:45.196Z,1028.97
2018-01-08T02:53:45.180Z,1028.99
2018-01-08T02:54:45.111Z,1028.97
2018-01-08T02:55:45.104Z,1028.98
2018-01-08T02:56:45.020Z,1029.01
2018-01-08T02:57:44.975Z,1028.97
2018-01-08T02:58:44.932Z,1029.01
2018-01-08T02:59:44.908Z,1029.04
2018-01-08T03:00:44.840Z,1029.01
2018-01-08T03:01:44.802Z,1029.00
2018-01-08T03:02:44.768Z,1029.00
2018-01-08T03:03:44.705Z,1028.99
2018-01-08T03:04:44.729Z,1028.98
2018-01-08T03:05:44.618Z,1028.94
2018-01-08T03:06:44.578Z,1028.93
2018-01-08T03:07:44.526Z,1028.96
2018-01-08T03:08:44.480Z,1028.93
2018-01-08T03:09:44.439Z,1028.97
2018-01-08T03:10:44.395Z,1029.01
2018-01-08T03:11:44.348Z,1029.01
2018-01-08T03:12:44.307Z,1028.99
2018-01-08T03:13:44.260Z,1028.99
2018-01-08T03:14:44.212Z,1028.97
2018-01-08T03:15:44.185Z,1028.99
2018-01-08T03:16:44.126Z,1028.99
2018-01-08T03:17:44.085Z,1028.98
2018-01-08T03:18:44.038Z,1029.01
2018-01-08T03:19:43.989Z,1029.03
2018-01-08T03:20:43.944Z,1029.08
2018-01-08T03:21:43.900Z,1029.07
2018-01-08T03:22:43.852Z,1029.10
2018-01-08T03:23:43.810Z,1029.10
2018-01-08T03:24:43.771Z,1029.09
2018-01-08T03:25:43.720Z,1029.09
2018-01-08T03:26:43.679Z,1029.10
2018-01-08T03:27:43.631Z,1029.09
2018-01-08T03:28:43.587Z,1029.10
2018-01-08T03:29:43.543Z,1029.11
2018-01-08T03:30:43.499Z,1029.15
2018-01-08T03:31:43.471Z,1029.07
2018-01-08T03:32:43.440Z,1029.01
2018-01-08T03:33:43.365Z,1029.08
2018-01-08T03:34:43.319Z,1029.04
2018-01-08T03:35:43.272Z,1029.06
2018-01-08T03:36:43.233Z,1029.05
2018-01-08T03:37:43.189Z,1029.00
2018-01-08T03:38:43.141Z,1029.01
2018-01-08T03:39:43.092Z,1029.04
2018-01-08T03:40:43.050Z,1029.05
2018-01-08T03:41:43.005Z,1029.02
2018-01-08T03:42:42.961Z,1029.07
2018-01-08T03:43:42.917Z,1029.06
2018-01-08T03:44:42.876Z,1029.03
2018-01-08T03:45:42.829Z,1029.08
2018-01-08T03:46:42.787Z,1029.08
2018-01-08T03:47:42.736Z,1029.12
2018-01-08T03:48:42.699Z,1029.14
2018-01-08T03:49:42.647Z,1029.15
2018-01-08T03:50:42.606Z,1029.18
2018-01-08T03:51:42.563Z,1029.15
2018-01-08T03:52:42.515Z,1029.15
2018-01-08T03:53:42.466Z,1029.14
2018-01-08T03:54:42.425Z,1029.12
2018-01-08T03:55:42.382Z,1029.12
2018-01-08T03:56:42.335Z,1029.06
2018-01-08T03:57:42.290Z,1029.09
2018-01-08T03:58:42.244Z,1029.07
2018-01-08T03:59:42.214Z,1029.06
2018-01-08T04:00:42.157Z,1029.05
2018-01-08T04:01:42.108Z,1029.05
2018-01-08T04:02:42.066Z,1029.09
2018-01-08T04:03:42.031Z,1029.07
2018-01-08T04:04:41.977Z,1029.05
2018-01-08T04:05:41.931Z,1029.09
2018-01-08T04:06:41.887Z,1029.05
2018-01-08T04:07:41.844Z,1029.04
2018-01-08T04:08:41.797Z,1029.03
2018-01-08T04:09:41.755Z,1029.07
2018-01-08T04:10:41.708Z,1029.09
2018-01-08T04:11:41.671Z,1029.12
2018-01-08T04:12:41.620Z,1029.11
2018-01-08T04:13:41.575Z,1029.13
2018-01-08T04:14:41.530Z,1029.15
2018-01-08T04:15:41.486Z,1029.14
2018-01-08T04:16:41.440Z,1029.17
2018-01-08T04:17:41.395Z,1029.17
2018-01-08T04:18:41.348Z,1029.19
2018-01-08T04:19:41.304Z,1029.18
2018-01-08T04:20:41.272Z,1029.20
2018-01-08T04:21:41.217Z,1029.17
2018-01-08T04:22:41.172Z,1029.16
2018-01-08T04:23:41.128Z,1029.16
2018-01-08T04:24:41.088Z,1029.18
2018-01-08T04:25:41.036Z,1029.21
2018-01-08T04:26:40.990Z,1029.20
2018-01-08T04:27:40.953Z,1029.20
2018-01-08T04:28:40.905Z,1029.20
2018-01-08T04:29:40.866Z,1029.17
2018-01-08T04:30:40.812Z,1029.15
2018-01-08T04:31:40.768Z,1029.13
2018-01-08T04:32:40.725Z,1029.21
2018-01-08T04:33:40.683Z,1029.20
2018-01-08T04:34:40.632Z,1029.24
2018-01-08T04:35:40.590Z,1029.28
2018-01-08T04:36:40.555Z,1029.30
2018-01-08T04:37:40.522Z,1029.33
2018-01-08T04:38:40.462Z,1029.34
2018-01-08T04:39:40.412Z,1029.39
2018-01-08T04:40:40.370Z,1029.39
2018-01-08T04:41:40.318Z,1029.39
2018-01-08T04:42:40.272Z,1029.41
2018-01-08T04:43:40.237Z,1029.40
2018-01-08T04:44:40.184Z,1029.41
2018-01-08T04:45:40.137Z,1029.44
2018-01-08T04:46:40.101Z,1029.45
2018-01-08T04:47:40.049Z,1029.46
2018-01-08T04:48:40.006Z,1029.56
2018-01-08T04:49:39.960Z,1029.52
2018-01-08T04:50:39.914Z,1029.54
2018-01-08T04:51:39.878Z,1029.57
2018-01-08T04:52:39.828Z,1029.54
2018-01-08T04:53:39.779Z,1029.65
2018-01-08T04:54:39.751Z,1029.70
2018-01-08T04:55:39.688Z,1029.69
2018-01-08T04:56:39.648Z,1029.73
2018-01-08T04:57:39.600Z,1029.70
2018-01-08T04:58:39.555Z,1029.72
2018-01-08T04:59:39.520Z,1029.72
2018-01-08T05:00:39.465Z,1029.70
2018-01-08T05:01:39.421Z,1029.73
2018-01-08T05:02:39.384Z,1029.69
2018-01-08T05:03:39.331Z,1029.72
2018-01-08T05:04:39.287Z,1029.72
2018-01-08T05:05:39.240Z,1029.76
2018-01-08T05:06:39.201Z,1029.72
2018-01-08T05:07:39.156Z,1029.75
2018-01-08T05:08:39.107Z,1029.75
2018-01-08T05:09:39.064Z,1029.74
2018-01-08T05:10:39.019Z,1029.72
2018-01-08T05:11:38.989Z,1029.72
2018-01-08T05:12:38.929Z,1029.65
2018-01-08T05:13:38.883Z,1029.62
2018-01-08T05:14:38.841Z,1029.60
2018-01-08T05:15:38.794Z,1029.57
2018-01-08T05:16:38.748Z,1029.61
2018-01-08T05:17:38.701Z,1029.53
2018-01-08T05:18:38.655Z,1029.55
2018-01-08T05:19:38.619Z,1029.62
2018-01-08T05:20:38.566Z,1029.59
2018-01-08T05:21:38.524Z,1029.61
2018-01-08T05:22:38.478Z,1029.68
2018-01-08T05:23:38.430Z,1029.71
2018-01-08T05:24:38.394Z,1029.69
2018-01-08T05:25:38.349Z,1029.70
2018-01-08T05:26:38.303Z,1029.71
2018-01-08T05:27:38.250Z,1029.71
2018-01-08T05:28:38.211Z,1029.70
2018-01-08T05:29:38.163Z,1029.72
2018-01-08T05:30:38.121Z,1029.72
2018-01-08T05:31:38.080Z,1029.71
2018-01-08T05:32:38.026Z,1029.71
2018-01-08T05:33:37.982Z,1029.70
2018-01-08T05:34:37.940Z,1029.66
2018-01-08T05:35:37.892Z,1029.70
2018-01-08T05:36:37.854Z,1029.71
2018-01-08T05:37:37.811Z,1029.70
2018-01-08T05:38:37.760Z,1029.69
2018-01-08T05:39:37.715Z,1029.69
2018-01-08T05:40:37.683Z,1029.66
2018-01-08T05:41:37.624Z,1029.65
2018-01-08T05:42:37.583Z,1029.63
2018-01-08T05:43:37.536Z,1029.66
2018-01-08T05:44:37.491Z,1029.68
2018-01-08T05:45:37.444Z,1029.69
2018-01-08T05:46:37.398Z,1029.71
2018-01-08T05:47:37.355Z,1029.71
2018-01-08T05:48:37.317Z,1029.73
2018-01-08T05:49:37.268Z,1029.72
2018-01-08T05:50:37.217Z,1029.66
2018-01-08T05:51:37.175Z,1029.65
2018-01-08T05:52:37.133Z,1029.68
2018-01-08T05:53:37.081Z,1029.64
2018-01-08T05:54:37.037Z,1029.69
2018-01-08T05:55:36.994Z,1029.69
2018-01-08T05:56:36.948Z,1029.64
2018-01-08T05:57:36.901Z,1029.68
2018-01-08T05:58:36.876Z,1029.67
2018-01-08T05:59:36.812Z,1029.72
2018-01-08T06:00:36.768Z,1029.74
2018-01-08T06:01:36.722Z,1029.69
2018-01-08T06:02:36.679Z,1029.74
2018-01-08T06:03:36.633Z,1029.73
2018-01-08T06:04:36.586Z,1029.68
2018-01-08T06:05:36.542Z,1029.72
2018-01-08T06:06:36.496Z,1029.77
2018-01-08T06:07:36.453Z,1029.79
2018-01-08T06:08:36.408Z,1029.79
2018-01-08T06:09:36.360Z,1029.83
2018-01-08T06:10:36.412Z,1029.81
2018-01-08T06:11:36.272Z,1029.79
2018-01-08T06:12:36.226Z,1029.78
2018-01-08T06:13:36.183Z,1029.83
2018-01-08T06:14:36.136Z,1029.85
2018-01-08T06:15:36.094Z,1029.85
2018-01-08T06:16:36.046Z,1029.85
2018-01-08T06:17:36.010Z,1029.85
2018-01-08T06:18:35.956Z,1029.84
2018-01-08T06:19:35.913Z,1029.84
2018-01-08T06:20:35.875Z,1029.86
2018-01-08T06:21:35.819Z,1029.87
2018-01-08T06:22:35.778Z,1029.87
2018-01-08T06:23:35.733Z,1029.88
2018-01-08T06:24:35.687Z,1029.91
2018-01-08T06:25:35.642Z,1029.90
2018-01-08T06:26:35.598Z,1029.89
2018-01-08T06:27:35.559Z,1029.89
2018-01-08T06:28:35.509Z,1029.90
2018-01-08T06:29:35.461Z,1029.88
2018-01-08T06:30:35.422Z,1029.87
2018-01-08T06:31:35.388Z,1029.88
2018-01-08T06:32:35.335Z,1029.84
2018-01-08T06:33:35.295Z,1029.85
2018-01-08T06:34:35.234Z,1029.86
2018-01-08T06:35:35.192Z,1029.86
2018-01-08T06:36:35.148Z,1029.79
2018-01-08T06:37:35.101Z,1029.81
2018-01-08T06:38:35.062Z,1029.76
2018-01-08T06:39:35.013Z,1029.74
2018-01-08T06:40:35.005Z,1029.81
2018-01-08T06:41:34.918Z,1029.79
2018-01-08T06:42:34.877Z,1029.78
2018-01-08T06:43:34.843Z,1029.79
2018-01-08T06:44:34.794Z,1029.81
2018-01-08T06:45:34.742Z,1029.77
2018-01-08T06:46:34.695Z,1029.77
2018-01-08T06:47:34.652Z,1029.78
2018-01-08T06:48:34.603Z,1029.84
2018-01-08T06:49:34.559Z,1029.87
2018-01-08T06:50:34.516Z,1029.88
2018-01-08T06:51:34.468Z,1029.87
2018-01-08T06:52:34.426Z,1029.87
2018-01-08T06:53:34.380Z,1029.89
2018-01-08T06:54:34.335Z,1029.93
2018-01-08T06:55:34.290Z,1029.97
2018-01-08T06:56:34.244Z,1029.92
2018-01-08T06:57:34.198Z,1029.98
2018-01-08T06:58:34.153Z,1029.95
2018-01-08T06:59:34.109Z,1029.99
2018-01-08T07:00:34.763Z,1029.95
2018-01-08T07:01:34.017Z,1029.95
2018-01-08T07:02:33.975Z,1030.00
2018-01-08T07:03:33.941Z,1029.99
2018-01-08T07:04:33.884Z,1030.01
2018-01-08T07:05:33.837Z,1030.01
2018-01-08T07:06:33.791Z,1030.03
2018-01-08T07:07:33.750Z,1030.00
2018-01-08T07:08:33.701Z,1029.94
2018-01-08T07:09:33.658Z,1029.97
2018-01-08T07:10:33.613Z,1029.92
2018-01-08T07:11:33.564Z,1029.89
2018-01-08T07:12:33.523Z,1029.90
2018-01-08T07:13:33.478Z,1029.82
2018-01-08T07:14:33.434Z,1029.79
2018-01-08T07:15:33.395Z,1029.83
2018-01-08T07:16:33.342Z,1029.81
2018-01-08T07:17:33.314Z,1029.78
2018-01-08T07:18:33.253Z,1029.81
2018-01-08T07:19:33.207Z,1029.84
2018-01-08T07:20:33.161Z,1029.81
2018-01-08T07:21:33.114Z,1029.85
2018-01-08T07:22:33.072Z,1029.87
2018-01-08T07:23:33.028Z,1029.94
2018-01-08T07:24:32.990Z,1029.94
2018-01-08T07:25:32.936Z,1029.96
2018-01-08T07:26:32.897Z,1029.95
2018-01-08T07:27:32.845Z,1029.95
2018-01-08T07:28:32.803Z,1029.89
2018-01-08T07:29:32.756Z,1029.86
2018-01-08T07:30:32.709Z,1029.84
2018-01-08T07:31:32.668Z,1029.86
2018-01-08T07:32:32.621Z,1029.84
2018-01-08T07:33:32.576Z,1029.86
2018-01-08T07:34:32.531Z,1029.87
2018-01-08T07:35:32.485Z,1029.94
2018-01-08T07:36:32.442Z,1029.95
2018-01-08T07:37:32.396Z,1029.94
2018-01-08T07:38:32.353Z,1029.97
2018-01-08T07:39:32.308Z,1030.01
2018-01-08T07:40:32.268Z,1030.02
2018-01-08T07:41:32.214Z,1030.06
2018-01-08T07:42:32.194Z,1030.03
2018-01-08T07:43:32.692Z,1030.05
2018-01-08T07:44:32.080Z,1030.02
2018-01-08T07:45:32.036Z,1030.03
2018-01-08T07:46:31.988Z,1030.06
2018-01-08T07:47:31.944Z,1030.06
2018-01-08T07:48:31.899Z,1030.13
2018-01-08T07:49:31.858Z,1030.12
2018-01-08T07:50:31.920Z,1030.13
2018-01-08T07:51:31.809Z,1030.09
2018-01-08T07:52:31.720Z,1030.16
2018-01-08T07:53:31.678Z,1030.10
2018-01-08T07:54:31.637Z,1030.15
2018-01-08T07:55:31.694Z,1030.15
2018-01-08T07:56:31.553Z,1030.17
2018-01-08T07:57:31.511Z,1030.13
2018-01-08T07:58:31.453Z,1030.11
2018-01-08T07:59:31.406Z,1030.08
2018-01-08T08:00:31.363Z,1030.05
2018-01-08T08:01:31.322Z,1030.09
2018-01-08T08:02:31.277Z,1030.10
2018-01-08T08:03:31.229Z,1030.08
2018-01-08T08:04:31.182Z,1030.10
2018-01-08T08:05:31.138Z,1030.15
2018-01-08T08:06:31.096Z,1030.11
2018-01-08T08:07:31.050Z,1030.13
2018-01-08T08:08:31.004Z,1030.15
2018-01-08T08:09:30.955Z,1030.22
2018-01-08T08:10:30.912Z,1030.21
2018-01-08T08:11:30.865Z,1030.23
2018-01-08T08:12:30.820Z,1030.28
2018-01-08T08:13:30.800Z,1030.15
2018-01-08T08:14:30.732Z,1030.13
2018-01-08T08:15:30.689Z,1030.10
2018-01-08T08:16:30.647Z,1030.06
2018-01-08T08:17:30.595Z,1030.12
2018-01-08T08:18:30.558Z,1030.09
2018-01-08T08:19:30.507Z,1030.07
2018-01-08T08:20:30.468Z,1030.05
2018-01-08T08:21:30.415Z,1030.11
2018-01-08T08:22:30.379Z,1030.17
2018-01-08T08:23:30.329Z,1030.21
2018-01-08T08:24:30.286Z,1030.19
2018-01-08T08:25:30.237Z,1030.22
2018-01-08T08:26:30.198Z,1030.20
2018-01-08T08:27:30.150Z,1030.14
2018-01-08T08:28:30.117Z,1030.07
2018-01-08T08:29:30.064Z,1030.11
2018-01-08T08:30:30.027Z,1030.11
2018-01-08T08:31:29.969Z,1029.99
2018-01-08T08:32:29.928Z,1030.05
2018-01-08T08:33:29.882Z,1030.08
2018-01-08T08:34:29.836Z,1030.07
2018-01-08T08:35:29.808Z,1030.11
2018-01-08T08:36:29.748Z,1030.16
2018-01-08T08:37:29.699Z,1030.18
2018-01-08T08:38:29.657Z,1030.22
2018-01-08T08:39:29.609Z,1030.16
2018-01-08T08:40:29.610Z,1030.23
2018-01-08T08:41:29.520Z,1030.23
2018-01-08T08:42:29.481Z,1030.27
2018-01-08T08:43:29.433Z,1030.22
2018-01-08T08:44:29.392Z,1030.21
2018-01-08T08:45:29.343Z,1030.24
2018-01-08T08:46:29.307Z,1030.24
2018-01-08T08:47:29.252Z,1030.25
2018-01-08T08:48:29.239Z,1030.20
2018-01-08T08:49:29.165Z,1030.19
2018-01-08T08:50:29.122Z,1030.27
2018-01-08T08:51:29.075Z,1030.19
2018-01-08T08:52:29.036Z,1030.22
2018-01-08T08:53:28.986Z,1030.19
2018-01-08T08:54:28.942Z,1030.28
2018-01-08T08:55:28.899Z,1030.18
2018-01-08T08:56:28.860Z,1030.20
2018-01-08T08:57:28.808Z,1030.16
2018-01-08T08:58:28.770Z,1030.14
2018-01-08T08:59:28.751Z,1030.16
2018-01-08T09:00:28.712Z,1030.17
2018-01-08T09:01:28.632Z,1030.16
2018-01-08T09:02:28.587Z,1030.15
2018-01-08T09:03:28.540Z,1030.18
2018-01-08T09:04:28.500Z,1030.21
2018-01-08T09:05:28.452Z,1030.16
2018-01-08T09:06:28.406Z,1030.18
2018-01-08T09:07:28.363Z,1030.18
2018-01-08T09:08:28.319Z,1030.21
2018-01-08T09:09:28.282Z,1030.24
2018-01-08T09:10:28.236Z,1030.24
2018-01-08T09:11:28.188Z,1030.22
2018-01-08T09:12:28.158Z,1030.25
2018-01-08T09:13:28.099Z,1030.34
2018-01-08T09:14:28.055Z,1030.31
2018-01-08T09:15:28.008Z,1030.31
2018-01-08T09:16:27.964Z,1030.28
2018-01-08T09:17:27.919Z,1030.22
2018-01-08T09:18:27.876Z,1030.25
2018-01-08T09:19:27.840Z,1030.26
2018-01-08T09:20:27.787Z,1030.29
2018-01-08T09:21:27.742Z,1030.25
2018-01-08T09:22:27.698Z,1030.30
2018-01-08T09:23:27.654Z,1030.28
2018-01-08T09:24:27.610Z,1030.27
2018-01-08T09:25:27.566Z,1030.26
2018-01-08T09:26:27.521Z,1030.27
2018-01-08T09:27:27.479Z,1030.28
2018-01-08T09:28:27.432Z,1030.29
2018-01-08T09:29:27.389Z,1030.24
2018-01-08T09:30:27.345Z,1030.21
2018-01-08T09:31:27.305Z,1030.21
2018-01-08T09:32:27.262Z,1030.22
2018-01-08T09:33:27.214Z,1030.30
2018-01-08T09:34:27.168Z,1030.22
2018-01-08T09:35:27.193Z,1030.25
2018-01-08T09:36:27.099Z,1030.22
2018-01-08T09:37:27.100Z,1030.25
2018-01-08T09:38:27.160Z,1030.24
2018-01-08T09:39:26.951Z,1030.26
2018-01-08T09:40:26.940Z,1030.25
2018-01-08T09:41:26.890Z,1030.15
2018-01-08T09:42:26.835Z,1030.20
2018-01-08T09:43:26.784Z,1030.20
2018-01-08T09:44:26.730Z,1030.23
2018-01-08T09:45:26.699Z,1030.18
2018-01-08T09:46:26.644Z,1030.17
2018-01-08T09:47:26.604Z,1030.19
2018-01-08T09:48:26.561Z,1030.19
2018-01-08T09:49:26.510Z,1030.17
2018-01-08T09:50:26.473Z,1030.11
2018-01-08T09:51:26.434Z,1030.12
2018-01-08T09:52:26.386Z,1030.05
2018-01-08T09:53:26.334Z,1030.05
2018-01-08T09:54:26.304Z,1030.09
2018-01-08T09:55:26.249Z,1030.04
2018-01-08T09:56:26.211Z,1030.09
2018-01-08T09:57:26.173Z,1030.07
2018-01-08T09:58:26.113Z,1030.09
2018-01-08T09:59:26.071Z,1030.05
2018-01-08T10:00:26.027Z,1030.08
2018-01-08T10:01:25.989Z,1030.06
2018-01-08T10:02:25.944Z,1030.15
2018-01-08T10:03:25.905Z,1030.09
2018-01-08T10:04:25.852Z,1030.06
2018-01-08T10:05:25.814Z,1030.09
2018-01-08T10:06:25.761Z,1030.10
2018-01-08T10:07:25.722Z,1030.12
2018-01-08T10:08:25.678Z,1030.04
2018-01-08T10:09:25.636Z,1030.01
2018-01-08T10:10:25.592Z,1030.05
2018-01-08T10:11:25.557Z,1029.99
2018-01-08T10:12:25.512Z,1030.04
2018-01-08T10:13:25.480Z,1030.01
2018-01-08T10:14:25.422Z,1030.03
2018-01-08T10:15:25.372Z,1030.09
2018-01-08T10:16:25.331Z,1030.02
2018-01-08T10:17:25.288Z,1030.04
2018-01-08T10:18:25.243Z,1030.05
2018-01-08T10:19:25.202Z,1030.02
2018-01-08T10:20:25.157Z,1029.97
2018-01-08T10:21:25.111Z,1029.97
2018-01-08T10:22:25.067Z,1029.96
2018-01-08T10:23:25.042Z,1029.96
2018-01-08T10:24:24.984Z,1029.95
2018-01-08T10:25:24.946Z,1029.92
2018-01-08T10:26:24.892Z,1029.96
2018-01-08T10:27:24.859Z,1029.91
2018-01-08T10:28:24.810Z,1029.93
2018-01-08T10:29:24.773Z,1029.91
2018-01-08T10:30:24.724Z,1029.90
2018-01-08T10:31:24.682Z,1029.91
2018-01-08T10:32:24.640Z,1029.83
2018-01-08T10:33:24.590Z,1029.87
2018-01-08T10:34:24.562Z,1029.83
2018-01-08T10:35:24.508Z,1029.84
2018-01-08T10:36:24.462Z,1029.92
2018-01-08T10:37:24.418Z,1029.82
2018-01-08T10:38:24.382Z,1029.83
2018-01-08T10:39:24.331Z,1029.76
2018-01-08T10:40:24.322Z,1029.82
2018-01-08T10:41:24.242Z,1029.73
2018-01-08T10:42:24.198Z,1029.83
2018-01-08T10:43:24.161Z,1029.82
2018-01-08T10:44:24.160Z,1029.85
2018-01-08T10:45:24.071Z,1029.81
2018-01-08T10:46:24.132Z,1029.83
2018-01-08T10:47:23.988Z,1029.82
2018-01-08T10:48:23.947Z,1029.78
2018-01-08T10:49:23.892Z,1029.81
2018-01-08T10:50:23.850Z,1029.76
2018-01-08T10:51:23.819Z,1029.72
2018-01-08T10:52:23.766Z,1029.66
2018-01-08T10:53:23.722Z,1029.69
2018-01-08T10:54:23.676Z,1029.63
2018-01-08T10:55:23.638Z,1029.60
2018-01-08T10:56:23.596Z,1029.63
2018-01-08T10:57:23.575Z,1029.54
2018-01-08T10:58:23.504Z,1029.59
2018-01-08T10:59:23.461Z,1029.65
2018-01-08T11:00:23.421Z,1029.60
2018-01-08T11:01:23.382Z,1029.61
2018-01-08T11:02:23.366Z,1029.57
2018-01-08T11:03:23.288Z,1029.49
2018-01-08T11:04:23.294Z,1029.48
2018-01-08T11:05:23.202Z,1029.52
2018-01-08T11:06:23.158Z,1029.59
2018-01-08T11:07:23.114Z,1029.63
2018-01-08T11:08:23.069Z,1029.65
2018-01-08T11:09:23.027Z,1029.58
2018-01-08T11:10:22.982Z,1029.58
2018-01-08T11:11:22.959Z,1029.64
2018-01-08T11:12:22.916Z,1029.49
2018-01-08T11:13:22.858Z,1029.47
2018-01-08T11:14:22.820Z,1029.56
2018-01-08T11:15:22.811Z,1029.50
2018-01-08T11:16:22.725Z,1029.50
2018-01-08T11:17:22.700Z,1029.45
2018-01-08T11:18:22.723Z,1029.46
2018-01-08T11:19:22.598Z,1029.43
2018-01-08T11:20:22.553Z,1029.50
2018-01-08T11:21:22.511Z,1029.51
2018-01-08T11:22:22.470Z,1029.39
2018-01-08T11:23:22.424Z,1029.37
2018-01-08T11:24:22.384Z,1029.32
2018-01-08T11:25:22.336Z,1029.29
2018-01-08T11:26:22.294Z,1029.34
2018-01-08T11:27:22.254Z,1029.30
2018-01-08T11:28:22.221Z,1029.31
2018-01-08T11:29:22.165Z,1029.28
2018-01-08T11:30:22.121Z,1029.28
2018-01-08T11:31:22.077Z,1029.26
2018-01-08T11:32:22.046Z,1029.23
2018-01-08T11:33:21.996Z,1029.25
2018-01-08T11:34:21.954Z,1029.19
2018-01-08T11:35:21.908Z,1029.25
2018-01-08T11:36:21.862Z,1029.25
2018-01-08T11:37:21.825Z,1029.23
2018-01-08T11:38:21.782Z,1029.24
2018-01-08T11:39:21.732Z,1029.18
2018-01-08T11:40:21.689Z,1029.24
2018-01-08T11:41:21.647Z,1029.23
2018-01-08T11:42:21.607Z,1029.15
2018-01-08T11:43:21.564Z,1029.26
2018-01-08T11:44:21.525Z,1029.21
2018-01-08T11:45:21.474Z,1029.15
2018-01-08T11:46:21.442Z,1029.13
2018-01-08T11:47:21.395Z,1029.13
2018-01-08T11:48:21.355Z,1029.19
2018-01-08T11:49:21.303Z,1029.24
2018-01-08T11:50:21.256Z,1029.13
2018-01-08T11:51:21.218Z,1029.20
2018-01-08T11:52:21.186Z,1029.20
2018-01-08T11:53:21.127Z,1029.17
2018-01-08T11:54:21.081Z,1029.16
2018-01-08T11:55:21.039Z,1029.17
2018-01-08T11:56:20.997Z,1029.14
2018-01-08T11:57:20.958Z,1029.13
2018-01-08T11:58:20.908Z,1029.09
2018-01-08T11:59:20.866Z,1029.12
2018-01-08T12:00:20.835Z,1029.07
2018-01-08T12:01:20.783Z,1029.04
2018-01-08T12:02:20.742Z,1029.09
2018-01-08T12:03:20.696Z,1029.12
2018-01-08T12:04:20.651Z,1029.08
2018-01-08T12:05:20.608Z,1029.07